createdAt,value
2018-01-05T00:00:04.227Z,83.72
2018-01-05T00:01:04.215Z,83.72
2018-01-05T00:02:04.205Z,83.06
2018-01-05T00:03:04.192Z,83.34
2018-01-05T00:04:04.179Z,83.15
2018-01-05T00:05:04.169Z,83.15
2018-01-05T00:06:04.157Z,82.87
2018-01-05T00:07:04.144Z,83.44
2018-01-05T00:08:04.131Z,83.15
2018-01-05T00:09:04.120Z,83.34
2018-01-05T00:10:04.108Z,83.34
2018-01-05T00:11:04.097Z,82.49
2018-01-05T00:12:04.085Z,82.58
2018-01-05T00:13:04.075Z,83.34
2018-01-05T00:14:04.060Z,83.34
2018-01-05T00:15:04.050Z,83.62
2018-01-05T00:16:04.036Z,83.25
2018-01-05T00:17:04.025Z,82.87
2018-01-05T00:18:04.014Z,82.49
2018-01-05T00:19:04.001Z,82.58
2018-01-05T00:20:03.989Z,83.25
2018-01-05T00:21:03.977Z,83.34
2018-01-05T00:22:03.966Z,83.25
2018-01-05T00:23:03.954Z,83.44
2018-01-05T00:24:03.941Z,83.53
2018-01-05T00:25:03.930Z,83.15
2018-01-05T00:26:03.918Z,83.25
2018-01-05T00:27:03.918Z,82.58
2018-01-05T00:28:03.893Z,82.49
2018-01-05T00:29:03.892Z,82.20
2018-01-05T00:30:03.872Z,82.39
2018-01-05T00:31:03.859Z,81.73
2018-01-05T00:32:03.846Z,81.35
2018-01-05T00:33:03.835Z,81.54
2018-01-05T00:34:03.823Z,81.92
2018-01-05T00:35:03.811Z,81.82
2018-01-05T00:36:03.799Z,82.39
2018-01-05T00:37:03.788Z,82.39
2018-01-05T00:38:03.775Z,82.68
2018-01-05T00:39:03.764Z,82.58
2018-01-05T00:40:03.750Z,82.49
2018-01-05T00:41:03.758Z,82.01
2018-01-05T00:42:03.731Z,81.73
2018-01-05T00:43:03.718Z,82.49
2018-01-05T00:44:03.706Z,82.10
2018-01-05T00:45:03.704Z,81.92
2018-01-05T00:46:03.682Z,81.54
2018-01-05T00:47:03.670Z,81.63
2018-01-05T00:48:03.657Z,81.44
2018-01-05T00:49:03.645Z,82.01
2018-01-05T00:50:03.634Z,82.29
2018-01-05T00:51:03.622Z,82.10
2018-01-05T00:52:03.609Z,82.39
2018-01-05T00:53:03.597Z,82.20
2018-01-05T00:54:03.587Z,82.39
2018-01-05T00:55:03.575Z,82.01
2018-01-05T00:56:03.563Z,82.20
2018-01-05T00:57:03.551Z,82.10
2018-01-05T00:58:03.543Z,82.10
2018-01-05T00:59:03.528Z,82.49
2018-01-05T01:00:03.516Z,82.39
2018-01-05T01:01:03.504Z,82.29
2018-01-05T01:02:03.498Z,82.29
2018-01-05T01:03:03.481Z,82.39
2018-01-05T01:04:03.469Z,83.06
2018-01-05T01:05:03.457Z,82.77
2018-01-05T01:06:03.446Z,82.58
2018-01-05T01:07:03.436Z,82.39
2018-01-05T01:08:03.421Z,81.82
2018-01-05T01:09:03.410Z,82.10
2018-01-05T01:10:03.400Z,82.20
2018-01-05T01:11:03.387Z,82.68
2018-01-05T01:12:03.377Z,82.49
2018-01-05T01:13:03.364Z,82.49
2018-01-05T01:14:03.353Z,83.15
2018-01-05T01:15:03.346Z,82.58
2018-01-05T01:16:03.328Z,83.15
2018-01-05T01:17:03.317Z,82.49
2018-01-05T01:18:03.306Z,83.34
2018-01-05T01:19:03.295Z,83.44
2018-01-05T01:20:03.281Z,83.06
2018-01-05T01:21:03.272Z,83.34
2018-01-05T01:22:03.260Z,83.06
2018-01-05T01:23:03.247Z,83.34
2018-01-05T01:24:03.236Z,83.15
2018-01-05T01:25:03.223Z,83.34
2018-01-05T01:26:03.213Z,83.15
2018-01-05T01:27:03.202Z,83.06
2018-01-05T01:28:03.190Z,83.15
2018-01-05T01:29:03.177Z,83.53
2018-01-05T01:30:03.166Z,83.44
2018-01-05T01:31:03.156Z,84.10
2018-01-05T01:32:03.142Z,83.91
2018-01-05T01:33:03.133Z,83.53
2018-01-05T01:34:03.120Z,83.62
2018-01-05T01:35:03.108Z,84.20
2018-01-05T01:36:03.095Z,83.15
2018-01-05T01:37:03.086Z,83.62
2018-01-05T01:38:03.074Z,84.01
2018-01-05T01:39:03.063Z,83.82
2018-01-05T01:40:03.050Z,84.01
2018-01-05T01:41:03.047Z,84.01
2018-01-05T01:42:03.028Z,84.10
2018-01-05T01:43:03.015Z,84.01
2018-01-05T01:44:03.004Z,84.10
2018-01-05T01:45:02.993Z,83.91
2018-01-05T01:46:02.979Z,83.91
2018-01-05T01:47:02.969Z,84.01
2018-01-05T01:48:02.956Z,83.53
2018-01-05T01:49:02.946Z,83.82
2018-01-05T01:50:02.943Z,83.44
2018-01-05T01:51:02.923Z,84.01
2018-01-05T01:52:02.910Z,84.10
2018-01-05T01:53:02.900Z,84.48
2018-01-05T01:54:02.887Z,84.48
2018-01-05T01:55:02.877Z,83.91
2018-01-05T01:56:02.864Z,84.29
2018-01-05T01:57:02.851Z,83.91
2018-01-05T01:58:02.841Z,84.20
2018-01-05T01:59:02.829Z,84.10
2018-01-05T02:00:02.817Z,84.58
2018-01-05T02:01:02.804Z,84.67
2018-01-05T02:02:02.795Z,84.58
2018-01-05T02:03:02.787Z,85.15
2018-01-05T02:04:02.770Z,85.62
2018-01-05T02:05:02.761Z,85.53
2018-01-05T02:06:02.756Z,85.34
2018-01-05T02:07:02.737Z,85.62
2018-01-05T02:08:02.724Z,85.53
2018-01-05T02:09:02.712Z,86.29
2018-01-05T02:10:02.701Z,86.76
2018-01-05T02:11:02.690Z,86.76
2018-01-05T02:12:02.678Z,87.38
2018-01-05T02:13:02.665Z,87.62
2018-01-05T02:14:02.655Z,87.67
2018-01-05T02:15:02.642Z,88.19
2018-01-05T02:16:02.630Z,87.67
2018-01-05T02:17:02.618Z,87.76
2018-01-05T02:18:02.607Z,87.95
2018-01-05T02:19:02.595Z,87.62
2018-01-05T02:20:02.582Z,87.95
2018-01-05T02:21:02.576Z,88.71
2018-01-05T02:22:02.560Z,87.67
2018-01-05T02:23:02.549Z,87.52
2018-01-05T02:24:02.536Z,87.10
2018-01-05T02:25:02.525Z,87.52
2018-01-05T02:26:02.512Z,88.53
2018-01-05T02:27:02.500Z,88.24
2018-01-05T02:28:02.488Z,88.15
2018-01-05T02:29:02.482Z,88.90
2018-01-05T02:30:02.469Z,88.34
2018-01-05T02:31:02.452Z,89.00
2018-01-05T02:32:02.440Z,89.86
2018-01-05T02:33:02.429Z,91.28
2018-01-05T02:34:02.436Z,91.09
2018-01-05T02:35:02.406Z,92.61
2018-01-05T02:36:02.391Z,93.65
2018-01-05T02:37:02.379Z,95.12
2018-01-05T02:38:02.368Z,95.89
2018-01-05T02:39:02.356Z,97.31
2018-01-05T02:40:02.344Z,97.50
2018-01-05T02:41:02.332Z,97.50
2018-01-05T02:42:02.318Z,98.64
2018-01-05T02:43:02.308Z,98.73
2018-01-05T02:44:02.298Z,98.92
2018-01-05T02:45:02.281Z,99.49
2018-01-05T02:46:02.270Z,99.99
2018-01-05T02:47:02.257Z,99.99
2018-01-05T02:48:02.244Z,99.99
2018-01-05T02:49:02.233Z,99.87
2018-01-05T02:50:02.219Z,99.99
2018-01-05T02:51:02.207Z,99.99
2018-01-05T02:52:02.194Z,99.99
2018-01-05T02:53:02.182Z,99.99
2018-01-05T02:54:02.170Z,99.99
2018-01-05T02:55:02.158Z,99.99
2018-01-05T02:56:02.144Z,99.99
2018-01-05T02:57:02.131Z,99.99
2018-01-05T02:58:02.119Z,99.99
2018-01-05T02:59:02.108Z,99.99
2018-01-05T03:00:02.093Z,99.99
2018-01-05T03:01:02.082Z,99.99
2018-01-05T03:02:02.069Z,99.99
2018-01-05T03:03:02.056Z,99.99
2018-01-05T03:04:02.045Z,99.99
2018-01-05T03:05:02.031Z,99.99
2018-01-05T03:06:02.021Z,99.99
2018-01-05T03:07:02.007Z,99.99
2018-01-05T03:08:01.993Z,99.99
2018-01-05T03:09:01.981Z,99.99
2018-01-05T03:10:01.969Z,99.99
2018-01-05T03:11:01.956Z,99.99
2018-01-05T03:12:01.944Z,99.99
2018-01-05T03:13:01.932Z,99.99
2018-01-05T03:14:01.919Z,99.99
2018-01-05T03:15:01.907Z,99.99
2018-01-05T03:16:01.894Z,99.99
2018-01-05T03:17:01.883Z,99.99
2018-01-05T03:18:01.870Z,99.99
2018-01-05T03:19:01.857Z,99.99
2018-01-05T03:20:01.848Z,99.99
2018-01-05T03:21:01.831Z,99.99
2018-01-05T03:22:01.824Z,99.99
2018-01-05T03:23:01.807Z,99.99
2018-01-05T03:24:01.793Z,99.99
2018-01-05T03:25:01.800Z,99.99
2018-01-05T03:26:01.769Z,99.99
2018-01-05T03:27:01.757Z,99.99
2018-01-05T03:28:01.743Z,99.99
2018-01-05T03:29:01.731Z,99.99
2018-01-05T03:30:01.720Z,99.99
2018-01-05T03:31:01.711Z,99.99
2018-01-05T03:32:01.694Z,99.99
2018-01-05T03:33:01.681Z,99.99
2018-01-05T03:34:01.668Z,99.99
2018-01-05T03:35:01.656Z,99.99
2018-01-05T03:36:01.642Z,99.99
2018-01-05T03:37:01.630Z,99.99
2018-01-05T03:38:01.617Z,99.99
2018-01-05T03:39:01.606Z,99.99
2018-01-05T03:40:01.594Z,99.99
2018-01-05T03:41:01.580Z,99.99
2018-01-05T03:42:01.568Z,99.99
2018-01-05T03:43:01.556Z,99.99
2018-01-05T03:44:01.544Z,99.99
2018-01-05T03:45:01.532Z,99.99
2018-01-05T03:46:01.519Z,99.99
2018-01-05T03:47:01.514Z,99.99
2018-01-05T03:48:01.495Z,99.99
2018-01-05T03:49:01.483Z,99.99
2018-01-05T03:50:01.470Z,99.99
2018-01-05T03:51:01.458Z,99.99
2018-01-05T03:52:01.445Z,99.99
2018-01-05T03:53:01.433Z,99.99
2018-01-05T03:54:01.421Z,99.99
2018-01-05T03:55:01.411Z,99.99
2018-01-05T03:56:01.396Z,99.99
2018-01-05T03:57:01.386Z,99.99
2018-01-05T03:58:01.377Z,99.99
2018-01-05T03:59:01.360Z,99.99
2018-01-05T04:00:01.346Z,99.99
2018-01-05T04:01:01.335Z,99.99
2018-01-05T04:02:01.323Z,99.99
2018-01-05T04:03:01.312Z,99.99
2018-01-05T04:04:01.301Z,99.99
2018-01-05T04:05:01.287Z,99.99
2018-01-05T04:06:01.275Z,99.99
2018-01-05T04:07:01.262Z,99.99
2018-01-05T04:08:01.250Z,99.99
2018-01-05T04:09:01.242Z,99.99
2018-01-05T04:10:01.229Z,99.99
2018-01-05T04:11:01.215Z,99.99
2018-01-05T04:12:01.202Z,99.99
2018-01-05T04:13:01.190Z,99.99
2018-01-05T04:14:01.179Z,99.99
2018-01-05T04:15:01.165Z,99.99
2018-01-05T04:16:01.153Z,99.99
2018-01-05T04:17:01.142Z,99.99
2018-01-05T04:18:01.130Z,99.99
2018-01-05T04:19:01.118Z,99.99
2018-01-05T04:20:01.105Z,99.99
2018-01-05T04:21:01.093Z,99.99
2018-01-05T04:22:01.083Z,99.99
2018-01-05T04:23:01.070Z,99.99
2018-01-05T04:24:01.058Z,99.99
2018-01-05T04:25:01.045Z,99.99
2018-01-05T04:26:01.034Z,99.99
2018-01-05T04:27:01.025Z,99.99
2018-01-05T04:28:01.008Z,99.99
2018-01-05T04:29:00.997Z,99.99
2018-01-05T04:30:00.985Z,99.99
2018-01-05T04:31:00.973Z,99.99
2018-01-05T04:32:01.016Z,99.99
2018-01-05T04:33:00.952Z,99.99
2018-01-05T04:34:00.938Z,99.99
2018-01-05T04:35:00.927Z,99.99
2018-01-05T04:36:00.914Z,99.99
2018-01-05T04:37:00.910Z,99.99
2018-01-05T04:38:00.890Z,99.99
2018-01-05T04:39:00.878Z,99.99
2018-01-05T04:40:00.866Z,99.69
2018-01-05T04:41:00.853Z,99.99
2018-01-05T04:42:00.842Z,98.93
2018-01-05T04:43:00.834Z,98.83
2018-01-05T04:44:00.817Z,98.17
2018-01-05T04:45:00.823Z,97.41
2018-01-05T04:46:00.793Z,97.60
2018-01-05T04:47:00.782Z,98.45
2018-01-05T04:48:00.769Z,98.17
2018-01-05T04:49:00.757Z,97.50
2018-01-05T04:50:00.746Z,97.50
2018-01-05T04:51:00.735Z,96.93
2018-01-05T04:52:00.722Z,97.22
2018-01-05T04:53:00.710Z,96.74
2018-01-05T04:54:00.698Z,97.50
2018-01-05T04:55:00.687Z,97.31
2018-01-05T04:56:00.673Z,97.22
2018-01-05T04:57:00.663Z,96.93
2018-01-05T04:58:00.650Z,97.22
2018-01-05T04:59:00.639Z,96.45
2018-01-05T05:00:00.629Z,96.65
2018-01-05T05:01:00.614Z,97.03
2018-01-05T05:02:00.605Z,97.12
2018-01-05T05:03:00.592Z,96.45
2018-01-05T05:04:00.581Z,96.08
2018-01-05T05:05:00.569Z,96.55
2018-01-05T05:06:00.558Z,96.36
2018-01-05T05:07:00.544Z,96.84
2018-01-05T05:08:00.530Z,97.22
2018-01-05T05:09:00.520Z,96.55
2018-01-05T05:10:00.508Z,96.55
2018-01-05T05:11:00.496Z,96.55
2018-01-05T05:12:00.484Z,96.65
2018-01-05T05:13:00.475Z,97.31
2018-01-05T05:14:00.461Z,97.41
2018-01-05T05:15:00.449Z,96.74
2018-01-05T05:16:00.438Z,96.93
2018-01-05T05:17:00.425Z,97.22
2018-01-05T05:18:00.413Z,96.84
2018-01-05T05:19:00.402Z,96.55
2018-01-05T05:20:00.389Z,96.69
2018-01-05T05:21:00.378Z,96.93
2018-01-05T05:22:00.367Z,97.17
2018-01-05T05:23:00.355Z,97.03
2018-01-05T05:24:00.343Z,96.93
2018-01-05T05:25:00.331Z,96.89
2018-01-05T05:26:00.320Z,97.22
2018-01-05T05:27:00.308Z,96.50
2018-01-05T05:28:00.295Z,96.41
2018-01-05T05:29:00.286Z,96.84
2018-01-05T05:30:00.275Z,97.36
2018-01-05T05:31:00.260Z,97.12
2018-01-05T05:32:00.250Z,96.84
2018-01-05T05:33:00.238Z,96.60
2018-01-05T05:34:00.226Z,96.55
2018-01-05T05:35:00.214Z,96.60
2018-01-05T05:36:00.202Z,97.41
2018-01-05T05:37:00.190Z,96.55
2018-01-05T05:38:00.178Z,96.36
2018-01-05T05:39:00.170Z,96.84
2018-01-05T05:40:00.162Z,97.22
2018-01-05T05:41:00.148Z,97.03
2018-01-05T05:42:00.131Z,97.22
2018-01-05T05:43:00.121Z,97.50
2018-01-05T05:44:00.109Z,96.89
2018-01-05T05:45:00.097Z,96.69
2018-01-05T05:46:00.085Z,96.26
2018-01-05T05:47:00.074Z,95.56
2018-01-05T05:48:00.061Z,95.94
2018-01-05T05:49:00.049Z,96.36
2018-01-05T05:50:00.040Z,96.12
2018-01-05T05:51:00.030Z,96.26
2018-01-05T05:52:00.018Z,95.56
2018-01-05T05:53:00.022Z,95.65
2018-01-05T05:53:59.990Z,95.84
2018-01-05T05:54:59.980Z,95.94
2018-01-05T05:55:59.967Z,95.56
2018-01-05T05:56:59.955Z,95.46
2018-01-05T05:57:59.943Z,95.75
2018-01-05T05:58:59.932Z,95.94
2018-01-05T05:59:59.920Z,95.56
2018-01-05T06:00:59.910Z,96.17
2018-01-05T06:01:59.899Z,96.22
2018-01-05T06:02:59.886Z,96.45
2018-01-05T06:03:59.878Z,95.60
2018-01-05T06:04:59.862Z,96.17
2018-01-05T06:05:59.850Z,95.70
2018-01-05T06:06:59.838Z,95.70
2018-01-05T06:07:59.829Z,96.08
2018-01-05T06:08:59.814Z,95.75
2018-01-05T06:09:59.803Z,96.17
2018-01-05T06:10:59.792Z,95.94
2018-01-05T06:11:59.780Z,95.84
2018-01-05T06:12:59.769Z,95.36
2018-01-05T06:13:59.756Z,95.65
2018-01-05T06:14:59.748Z,96.22
2018-01-05T06:15:59.733Z,96.17
2018-01-05T06:16:59.724Z,96.08
2018-01-05T06:17:59.711Z,95.36
2018-01-05T06:18:59.699Z,95.46
2018-01-05T06:19:59.687Z,96.41
2018-01-05T06:20:59.675Z,95.89
2018-01-05T06:21:59.664Z,95.70
2018-01-05T06:22:59.653Z,96.08
2018-01-05T06:23:59.640Z,96.31
2018-01-05T06:24:59.629Z,96.45
2018-01-05T06:25:59.617Z,96.36
2018-01-05T06:26:59.606Z,95.89
2018-01-05T06:27:59.594Z,95.60
2018-01-05T06:28:59.582Z,95.70
2018-01-05T06:29:59.570Z,96.36
2018-01-05T06:30:59.560Z,94.74
2018-01-05T06:31:59.548Z,94.74
2018-01-05T06:32:59.536Z,94.56
2018-01-05T06:33:59.524Z,93.89
2018-01-05T06:34:59.513Z,94.27
2018-01-05T06:35:59.502Z,94.27
2018-01-05T06:36:59.489Z,94.27
2018-01-05T06:37:59.477Z,94.08
2018-01-05T06:38:59.466Z,93.41
2018-01-05T06:39:59.453Z,93.41
2018-01-05T06:40:59.442Z,93.99
2018-01-05T06:41:59.431Z,94.18
2018-01-05T06:42:59.419Z,93.94
2018-01-05T06:43:59.408Z,93.79
2018-01-05T06:44:59.396Z,93.89
2018-01-05T06:45:59.383Z,93.27
2018-01-05T06:46:59.373Z,93.37
2018-01-05T06:47:59.360Z,93.32
2018-01-05T06:48:59.350Z,93.18
2018-01-05T06:49:59.337Z,92.66
2018-01-05T06:50:59.328Z,92.66
2018-01-05T06:51:59.316Z,92.22
2018-01-05T06:52:59.303Z,91.66
2018-01-05T06:53:59.292Z,92.03
2018-01-05T06:54:59.280Z,91.71
2018-01-05T06:55:59.269Z,91.80
2018-01-05T06:56:59.258Z,91.75
2018-01-05T06:57:59.245Z,90.99
2018-01-05T06:58:59.234Z,91.56
2018-01-05T06:59:59.222Z,91.28
2018-01-05T07:00:59.211Z,90.99
2018-01-05T07:01:59.200Z,90.99
2018-01-05T07:02:59.189Z,91.37
2018-01-05T07:03:59.176Z,91.56
2018-01-05T07:04:59.165Z,91.71
2018-01-05T07:05:59.154Z,91.71
2018-01-05T07:06:59.142Z,91.37
2018-01-05T07:07:59.130Z,91.28
2018-01-05T07:08:59.120Z,91.18
2018-01-05T07:09:59.110Z,91.85
2018-01-05T07:10:59.099Z,91.89
2018-01-05T07:11:59.085Z,91.71
2018-01-05T07:12:59.074Z,91.47
2018-01-05T07:13:59.064Z,91.18
2018-01-05T07:14:59.055Z,91.08
2018-01-05T07:15:59.041Z,91.56
2018-01-05T07:16:59.029Z,91.66
2018-01-05T07:17:59.018Z,91.89
2018-01-05T07:18:59.007Z,91.94
2018-01-05T07:19:58.995Z,91.80
2018-01-05T07:20:58.985Z,91.61
2018-01-05T07:21:58.976Z,92.37
2018-01-05T07:22:58.963Z,92.46
2018-01-05T07:23:58.950Z,92.85
2018-01-05T07:24:58.941Z,92.75
2018-01-05T07:25:58.929Z,92.70
2018-01-05T07:26:58.917Z,93.46
2018-01-05T07:27:58.906Z,93.18
2018-01-05T07:28:58.898Z,93.27
2018-01-05T07:29:58.884Z,93.46
2018-01-05T07:30:58.875Z,93.13
2018-01-05T07:31:58.861Z,93.13
2018-01-05T07:32:58.851Z,93.08
2018-01-05T07:33:58.840Z,93.41
2018-01-05T07:34:58.836Z,93.46
2018-01-05T07:35:58.816Z,93.89
2018-01-05T07:36:58.810Z,93.51
2018-01-05T07:37:58.794Z,92.89
2018-01-05T07:38:58.784Z,92.99
2018-01-05T07:39:58.772Z,93.51
2018-01-05T07:40:58.761Z,92.70
2018-01-05T07:41:58.750Z,92.75
2018-01-05T07:42:58.739Z,92.13
2018-01-05T07:43:58.727Z,93.18
2018-01-05T07:44:58.716Z,92.46
2018-01-05T07:45:58.706Z,92.66
2018-01-05T07:46:58.699Z,93.04
2018-01-05T07:47:58.683Z,93.46
2018-01-05T07:48:58.672Z,93.23
2018-01-05T07:49:58.661Z,93.51
2018-01-05T07:51:58.638Z,93.65
2018-01-05T07:52:58.628Z,93.99
2018-01-05T07:53:58.622Z,93.99
2018-01-05T07:54:58.606Z,93.99
2018-01-05T07:55:58.594Z,93.70
2018-01-05T07:56:58.583Z,93.79
2018-01-05T07:57:58.573Z,94.08
2018-01-05T07:58:58.562Z,93.75
2018-01-05T07:59:58.550Z,93.37
2018-01-05T08:00:58.542Z,93.60
2018-01-05T08:01:58.528Z,93.13
2018-01-05T08:02:58.517Z,93.37
2018-01-05T08:03:58.506Z,93.51
2018-01-05T08:04:58.499Z,93.32
2018-01-05T08:05:58.491Z,93.46
2018-01-05T08:06:58.474Z,93.37
2018-01-05T08:07:58.463Z,93.79
2018-01-05T08:08:58.451Z,94.08
2018-01-05T08:09:58.441Z,94.18
2018-01-05T08:10:58.430Z,93.94
2018-01-05T08:11:58.418Z,93.89
2018-01-05T08:12:58.409Z,93.89
2018-01-05T08:13:58.398Z,92.85
2018-01-05T08:14:58.387Z,93.23
2018-01-05T08:15:58.376Z,92.18
2018-01-05T08:16:58.365Z,92.18
2018-01-05T08:17:58.355Z,91.85
2018-01-05T08:18:58.345Z,91.56
2018-01-05T08:19:58.333Z,91.66
2018-01-05T08:20:58.323Z,91.37
2018-01-05T08:21:58.311Z,90.99
2018-01-05T08:22:58.302Z,91.08
2018-01-05T08:23:58.290Z,91.18
2018-01-05T08:24:58.279Z,90.89
2018-01-05T08:25:58.268Z,91.56
2018-01-05T08:26:58.257Z,90.80
2018-01-05T08:27:58.245Z,91.08
2018-01-05T08:28:58.235Z,91.18
2018-01-05T08:29:58.225Z,90.52
2018-01-05T08:30:58.214Z,91.18
2018-01-05T08:31:58.208Z,90.80
2018-01-05T08:32:58.193Z,91.56
2018-01-05T08:33:58.181Z,91.56
2018-01-05T08:34:58.171Z,91.18
2018-01-05T08:35:58.160Z,90.99
2018-01-05T08:36:58.149Z,90.14
2018-01-05T08:37:58.139Z,90.70
2018-01-05T08:38:58.132Z,90.33
2018-01-05T08:39:58.117Z,91.18
2018-01-05T08:40:58.105Z,90.33
2018-01-05T08:41:58.094Z,90.33
2018-01-05T08:42:58.084Z,90.14
2018-01-05T08:43:58.074Z,90.52
2018-01-05T08:44:58.063Z,90.61
2018-01-05T08:45:58.052Z,90.52
2018-01-05T08:46:58.041Z,91.18
2018-01-05T08:47:58.031Z,91.37
2018-01-05T08:48:58.020Z,91.18
2018-01-05T08:49:58.010Z,91.18
2018-01-05T08:50:57.999Z,90.70
2018-01-05T08:51:57.996Z,91.37
2018-01-05T08:52:57.977Z,91.28
2018-01-05T08:53:57.967Z,91.28
2018-01-05T08:54:57.956Z,91.18
2018-01-05T08:55:57.945Z,91.47
2018-01-05T08:56:57.935Z,91.37
2018-01-05T08:57:57.925Z,91.18
2018-01-05T08:58:57.914Z,91.28
2018-01-05T08:59:57.903Z,90.61
2018-01-05T09:00:57.893Z,90.80
2018-01-05T09:01:57.883Z,91.37
2018-01-05T09:02:57.873Z,90.42
2018-01-05T09:03:57.862Z,91.37
2018-01-05T09:04:57.850Z,90.33
2018-01-05T09:05:57.842Z,90.33
2018-01-05T09:06:57.829Z,90.61
2018-01-05T09:07:57.818Z,90.33
2018-01-05T09:08:57.808Z,90.33
2018-01-05T09:09:57.798Z,90.42
2018-01-05T09:10:57.786Z,90.14
2018-01-05T09:11:57.776Z,90.23
2018-01-05T09:12:57.766Z,90.52
2018-01-05T09:13:57.756Z,89.94
2018-01-05T09:14:57.745Z,90.33
2018-01-05T09:15:57.735Z,90.04
2018-01-05T09:16:57.723Z,90.23
2018-01-05T09:17:57.712Z,90.89
2018-01-05T09:18:57.703Z,90.52
2018-01-05T09:19:57.691Z,90.52
2018-01-05T09:20:57.682Z,90.52
2018-01-05T09:21:57.675Z,90.99
2018-01-05T09:22:57.674Z,89.37
2018-01-05T09:23:57.651Z,89.56
2018-01-05T09:24:57.640Z,89.75
2018-01-05T09:25:57.629Z,90.14
2018-01-05T09:26:57.620Z,90.23
2018-01-05T09:27:57.608Z,89.85
2018-01-05T09:28:57.599Z,89.94
2018-01-05T09:29:57.589Z,89.85
2018-01-05T09:30:57.578Z,90.33
2018-01-05T09:31:57.567Z,90.89
2018-01-05T09:32:57.557Z,90.14
2018-01-05T09:33:57.545Z,89.94
2018-01-05T09:34:57.536Z,90.23
2018-01-05T09:35:57.525Z,90.99
2018-01-05T09:36:57.514Z,90.42
2018-01-05T09:37:57.504Z,90.42
2018-01-05T09:38:57.495Z,91.61
2018-01-05T09:39:57.482Z,92.08
2018-01-05T09:40:57.502Z,90.94
2018-01-05T09:41:57.461Z,92.08
2018-01-05T09:42:57.450Z,92.66
2018-01-05T09:43:57.439Z,92.18
2018-01-05T09:44:57.428Z,92.27
2018-01-05T09:45:57.418Z,93.32
2018-01-05T09:46:57.409Z,91.61
2018-01-05T09:47:57.395Z,91.89
2018-01-05T09:48:57.384Z,92.08
2018-01-05T09:49:57.419Z,91.61
2018-01-05T09:50:57.364Z,91.33
2018-01-05T09:51:57.351Z,90.47
2018-01-05T09:52:57.341Z,91.33
2018-01-05T09:53:57.330Z,90.94
2018-01-05T09:54:57.321Z,90.94
2018-01-05T09:55:57.313Z,90.94
2018-01-05T09:56:57.298Z,91.04
2018-01-05T09:57:57.287Z,91.99
2018-01-05T09:58:57.276Z,91.99
2018-01-05T09:59:57.265Z,92.37
2018-01-05T10:00:57.254Z,92.27
2018-01-05T10:01:57.244Z,93.41
2018-01-05T10:02:57.233Z,92.66
2018-01-05T10:03:57.223Z,93.13
2018-01-05T10:04:57.211Z,93.23
2018-01-05T10:05:57.201Z,93.41
2018-01-05T10:06:57.190Z,93.04
2018-01-05T10:07:57.178Z,93.32
2018-01-05T10:08:57.172Z,93.70
2018-01-05T10:09:57.157Z,93.37
2018-01-05T10:10:57.146Z,93.51
2018-01-05T10:11:57.134Z,93.55
2018-01-05T10:12:57.123Z,94.08
2018-01-05T10:13:57.113Z,94.03
2018-01-05T10:14:57.103Z,93.37
2018-01-05T10:15:57.092Z,93.32
2018-01-05T10:16:57.080Z,93.70
2018-01-05T10:17:57.074Z,93.60
2018-01-05T10:18:57.059Z,94.18
2018-01-05T10:19:57.048Z,93.32
2018-01-05T10:20:57.037Z,93.18
2018-01-05T10:21:57.026Z,93.89
2018-01-05T10:22:57.016Z,93.94
2018-01-05T10:23:57.004Z,93.65
2018-01-05T10:24:56.994Z,94.32
2018-01-05T10:25:56.986Z,93.94
2018-01-05T10:26:56.973Z,94.32
2018-01-05T10:27:56.960Z,93.75
2018-01-05T10:28:56.950Z,93.37
2018-01-05T10:29:56.940Z,93.94
2018-01-05T10:30:56.929Z,94.32
2018-01-05T10:31:56.918Z,93.37
2018-01-05T10:32:56.908Z,93.37
2018-01-05T10:33:56.896Z,93.94
2018-01-05T10:34:56.886Z,94.03
2018-01-05T10:35:56.875Z,93.55
2018-01-05T10:36:56.864Z,93.55
2018-01-05T10:37:56.853Z,93.08
2018-01-05T10:38:56.844Z,93.08
2018-01-05T10:39:56.834Z,93.37
2018-01-05T10:40:56.821Z,93.37
2018-01-05T10:41:56.814Z,93.65
2018-01-05T10:42:56.802Z,93.18
2018-01-05T10:43:56.789Z,93.18
2018-01-05T10:44:56.780Z,93.18
2018-01-05T10:45:56.769Z,93.08
2018-01-05T10:46:56.759Z,92.51
2018-01-05T10:47:56.748Z,92.80
2018-01-05T10:48:56.737Z,92.70
2018-01-05T10:49:56.727Z,92.22
2018-01-05T10:50:56.716Z,92.51
2018-01-05T10:51:56.706Z,92.51
2018-01-05T10:52:56.696Z,92.70
2018-01-05T10:53:56.685Z,92.61
2018-01-05T10:54:56.676Z,92.22
2018-01-05T10:55:56.664Z,92.51
2018-01-05T10:56:56.654Z,92.32
2018-01-05T10:57:56.652Z,92.32
2018-01-05T10:58:56.637Z,92.32
2018-01-05T10:59:56.623Z,92.27
2018-01-05T11:00:56.613Z,91.75
2018-01-05T11:01:56.601Z,91.75
2018-01-05T11:02:56.593Z,91.85
2018-01-05T11:03:56.582Z,91.18
2018-01-05T11:04:56.570Z,91.51
2018-01-05T11:05:56.560Z,91.56
2018-01-05T11:06:56.551Z,91.37
2018-01-05T11:07:56.540Z,91.85
2018-01-05T11:08:56.528Z,91.56
2018-01-05T11:09:56.520Z,91.66
2018-01-05T11:10:56.509Z,91.61
2018-01-05T11:11:56.498Z,91.94
2018-01-05T11:12:56.488Z,91.99
2018-01-05T11:13:56.479Z,91.61
2018-01-05T11:14:56.469Z,91.08
2018-01-05T11:15:56.456Z,91.51
2018-01-05T11:16:56.446Z,91.85
2018-01-05T11:17:56.439Z,91.37
2018-01-05T11:18:56.428Z,91.80
2018-01-05T11:19:56.416Z,92.80
2018-01-05T11:20:56.406Z,91.75
2018-01-05T11:21:56.395Z,91.75
2018-01-05T11:22:56.386Z,91.94
2018-01-05T11:23:56.375Z,91.99
2018-01-05T11:24:56.364Z,91.70
2018-01-05T11:25:56.356Z,91.66
2018-01-05T11:26:56.344Z,91.61
2018-01-05T11:27:56.348Z,91.22
2018-01-05T11:28:56.325Z,90.75
2018-01-05T11:29:56.316Z,91.13
2018-01-05T11:30:56.305Z,91.42
2018-01-05T11:31:56.294Z,91.22
2018-01-05T11:32:56.284Z,90.94
2018-01-05T11:33:56.274Z,91.22
2018-01-05T11:34:56.265Z,91.22
2018-01-05T11:35:56.254Z,91.03
2018-01-05T11:36:56.244Z,90.94
2018-01-05T11:37:56.232Z,90.37
2018-01-05T11:38:56.224Z,91.22
2018-01-05T11:39:56.212Z,90.94
2018-01-05T11:40:56.204Z,91.32
2018-01-05T11:41:56.194Z,91.22
2018-01-05T11:42:56.183Z,90.56
2018-01-05T11:43:56.174Z,91.42
2018-01-05T11:44:56.162Z,91.51
2018-01-05T11:45:56.153Z,91.70
2018-01-05T11:46:56.143Z,91.89
2018-01-05T11:47:56.133Z,91.70
2018-01-05T11:48:56.122Z,91.99
2018-01-05T11:49:56.112Z,91.61
2018-01-05T11:50:56.102Z,91.89
2018-01-05T11:51:56.091Z,91.99
2018-01-05T11:52:56.084Z,91.80
2018-01-05T11:53:56.072Z,91.61
2018-01-05T11:54:56.062Z,91.51
2018-01-05T11:55:56.052Z,91.80
2018-01-05T11:56:56.042Z,91.51
2018-01-05T11:57:56.032Z,91.70
2018-01-05T11:58:56.023Z,91.51
2018-01-05T11:59:56.013Z,91.32
2018-01-05T12:00:56.002Z,91.51
2018-01-05T12:01:55.991Z,91.99
2018-01-05T12:02:55.982Z,91.51
2018-01-05T12:03:55.971Z,91.51
2018-01-05T12:04:55.961Z,92.36
2018-01-05T12:05:55.951Z,91.99
2018-01-05T12:06:55.941Z,91.70
2018-01-05T12:07:55.930Z,91.70
2018-01-05T12:08:55.920Z,91.13
2018-01-05T12:09:55.910Z,90.84
2018-01-05T12:10:55.900Z,91.51
2018-01-05T12:11:55.889Z,91.70
2018-01-05T12:12:55.880Z,91.99
2018-01-05T12:13:55.915Z,91.22
2018-01-05T12:14:55.861Z,91.42
2018-01-05T12:15:55.850Z,91.13
2018-01-05T12:16:55.841Z,90.84
2018-01-05T12:17:55.838Z,91.32
2018-01-05T12:18:55.820Z,91.22
2018-01-05T12:19:55.808Z,91.03
2018-01-05T12:20:55.799Z,91.03
2018-01-05T12:21:55.790Z,91.42
2018-01-05T12:22:55.780Z,90.18
2018-01-05T12:23:55.770Z,90.47
2018-01-05T12:24:55.760Z,91.13
2018-01-05T12:25:55.749Z,91.13
2018-01-05T12:26:55.740Z,91.22
2018-01-05T12:27:55.729Z,91.32
2018-01-05T12:28:55.720Z,90.28
2018-01-05T12:29:55.710Z,91.22
2018-01-05T12:30:55.701Z,91.03
2018-01-05T12:31:55.690Z,90.08
2018-01-05T12:32:55.680Z,90.08
2018-01-05T12:33:55.672Z,90.56
2018-01-05T12:34:55.662Z,90.47
2018-01-05T12:35:55.651Z,91.42
2018-01-05T12:36:55.640Z,91.13
2018-01-05T12:37:55.639Z,91.22
2018-01-05T12:38:55.621Z,91.99
2018-01-05T12:39:55.610Z,91.03
2018-01-05T12:40:55.601Z,90.18
2018-01-05T12:41:55.592Z,90.75
2018-01-05T12:42:55.597Z,90.08
2018-01-05T12:43:55.571Z,91.42
2018-01-05T12:44:55.562Z,91.42
2018-01-05T12:45:55.551Z,90.47
2018-01-05T12:46:55.542Z,90.94
2018-01-05T12:47:55.531Z,91.51
2018-01-05T12:48:55.522Z,90.18
2018-01-05T12:49:55.511Z,90.75
2018-01-05T12:50:55.502Z,91.22
2018-01-05T12:51:55.491Z,90.84
2018-01-05T12:52:55.485Z,91.61